sensor_id;sensor_type;location;lat;lon;timestamp;P1;durP1;ratioP1;P2;durP2;ratioP2
53269;SDS011;39159;45.634;9.420;2023-07-31T00:01:32;7.63;;;5.07;;
53269;SDS011;39159;45.634;9.420;2023-07-31T00:03:57;8.07;;;5.22;;
53269;SDS011;39159;45.634;9.420;2023-07-31T00:06:23;7.53;;;5.50;;
53269;SDS011;39159;45.634;9.420;2023-07-31T00:08:48;8.45;;;5.25;;
53269;SDS011;39159;45.634;9.420;2023-07-31T00:11:14;8.43;;;5.65;;
53269;SDS011;39159;45.634;9.420;2023-07-31T00:13:39;6.45;;;5.40;;
53269;SDS011;39159;45.634;9.420;2023-07-31T00:16:05;6.20;;;5.22;;
53269;SDS011;39159;45.634;9.420;2023-07-31T00:18:31;7.60;;;5.32;;
53269;SDS011;39159;45.634;9.420;2023-07-31T00:20:56;8.48;;;5.45;;
53269;SDS011;39159;45.634;9.420;2023-07-31T00:23:21;8.73;;;5.70;;
53269;SDS011;39159;45.634;9.420;2023-07-31T00:25:47;9.63;;;5.35;;
53269;SDS011;39159;45.634;9.420;2023-07-31T00:28:12;7.72;;;5.10;;
53269;SDS011;39159;45.634;9.420;2023-07-31T00:30:38;11.27;;;5.50;;
53269;SDS011;39159;45.634;9.420;2023-07-31T00:33:03;8.23;;;5.30;;
53269;SDS011;39159;45.634;9.420;2023-07-31T00:35:29;7.47;;;5.85;;
53269;SDS011;39159;45.634;9.420;2023-07-31T00:37:55;6.85;;;4.93;;
53269;SDS011;39159;45.634;9.420;2023-07-31T00:40:21;7.53;;;5.45;;
53269;SDS011;39159;45.634;9.420;2023-07-31T00:42:46;8.68;;;5.90;;
53269;SDS011;39159;45.634;9.420;2023-07-31T00:45:12;7.05;;;5.88;;
53269;SDS011;39159;45.634;9.420;2023-07-31T00:47:37;8.18;;;5.40;;
53269;SDS011;39159;45.634;9.420;2023-07-31T00:50:03;7.55;;;5.60;;
53269;SDS011;39159;45.634;9.420;2023-07-31T00:52:29;7.18;;;6.15;;
53269;SDS011;39159;45.634;9.420;2023-07-31T00:54:55;8.02;;;5.85;;
53269;SDS011;39159;45.634;9.420;2023-07-31T00:57:20;6.97;;;5.30;;
53269;SDS011;39159;45.634;9.420;2023-07-31T00:59:45;7.07;;;5.65;;
53269;SDS011;39159;45.634;9.420;2023-07-31T01:02:11;10.23;;;6.05;;
53269;SDS011;39159;45.634;9.420;2023-07-31T01:04:37;6.78;;;5.13;;
53269;SDS011;39159;45.634;9.420;2023-07-31T01:10:29;7.40;;;6.10;;
53269;SDS011;39159;45.634;9.420;2023-07-31T01:13:00;7.72;;;5.72;;
53269;SDS011;39159;45.634;9.420;2023-07-31T01:15:27;9.23;;;5.88;;
53269;SDS011;39159;45.634;9.420;2023-07-31T01:17:53;8.95;;;6.28;;
53269;SDS011;39159;45.634;9.420;2023-07-31T01:20:21;8.30;;;6.03;;
53269;SDS011;39159;45.634;9.420;2023-07-31T01:31:12;7.75;;;5.97;;
53269;SDS011;39159;45.634;9.420;2023-07-31T01:33:42;6.78;;;6.00;;
53269;SDS011;39159;45.634;9.420;2023-07-31T01:36:07;10.18;;;6.50;;
53269;SDS011;39159;45.634;9.420;2023-07-31T01:38:33;8.90;;;6.35;;
53269;SDS011;39159;45.634;9.420;2023-07-31T01:40:59;8.93;;;6.07;;
53269;SDS011;39159;45.634;9.420;2023-07-31T01:43:24;9.30;;;6.53;;
53269;SDS011;39159;45.634;9.420;2023-07-31T01:45:49;6.72;;;5.90;;
53269;SDS011;39159;45.634;9.420;2023-07-31T01:48:15;9.05;;;5.57;;
53269;SDS011;39159;45.634;9.420;2023-07-31T01:50:40;7.05;;;6.32;;
53269;SDS011;39159;45.634;9.420;2023-07-31T01:53:06;7.05;;;5.53;;
53269;SDS011;39159;45.634;9.420;2023-07-31T01:55:31;7.05;;;6.35;;
53269;SDS011;39159;45.634;9.420;2023-07-31T01:57:56;7.55;;;5.45;;
53269;SDS011;39159;45.634;9.420;2023-07-31T02:00:22;8.25;;;5.90;;
53269;SDS011;39159;45.634;9.420;2023-07-31T02:02:47;8.93;;;5.40;;
53269;SDS011;39159;45.634;9.420;2023-07-31T02:05:13;6.15;;;5.25;;
53269;SDS011;39159;45.634;9.420;2023-07-31T02:07:38;7.00;;;5.32;;
53269;SDS011;39159;45.634;9.420;2023-07-31T02:10:04;6.72;;;5.32;;
53269;SDS011;39159;45.634;9.420;2023-07-31T02:12:30;7.65;;;5.80;;
53269;SDS011;39159;45.634;9.420;2023-07-31T02:14:57;6.03;;;5.32;;
53269;SDS011;39159;45.634;9.420;2023-07-31T02:17:22;6.28;;;5.30;;
53269;SDS011;39159;45.634;9.420;2023-07-31T02:19:48;6.60;;;5.10;;
53269;SDS011;39159;45.634;9.420;2023-07-31T02:22:13;7.38;;;5.10;;
53269;SDS011;39159;45.634;9.420;2023-07-31T02:24:39;6.40;;;5.15;;
53269;SDS011;39159;45.634;9.420;2023-07-31T02:27:04;8.07;;;5.80;;
53269;SDS011;39159;45.634;9.420;2023-07-31T02:29:30;6.90;;;5.30;;
53269;SDS011;39159;45.634;9.420;2023-07-31T02:31:55;8.57;;;5.70;;
53269;SDS011;39159;45.634;9.420;2023-07-31T02:34:21;6.35;;;5.13;;
53269;SDS011;39159;45.634;9.420;2023-07-31T02:36:46;6.57;;;5.15;;
53269;SDS011;39159;45.634;9.420;2023-07-31T02:39:12;5.78;;;5.05;;
53269;SDS011;39159;45.634;9.420;2023-07-31T02:41:37;7.18;;;5.30;;
53269;SDS011;39159;45.634;9.420;2023-07-31T02:44:03;7.95;;;5.53;;
53269;SDS011;39159;45.634;9.420;2023-07-31T02:46:28;6.85;;;4.88;;
53269;SDS011;39159;45.634;9.420;2023-07-31T02:48:53;5.90;;;5.13;;
53269;SDS011;39159;45.634;9.420;2023-07-31T02:51:19;5.10;;;4.60;;
53269;SDS011;39159;45.634;9.420;2023-07-31T02:53:46;7.15;;;5.22;;
53269;SDS011;39159;45.634;9.420;2023-07-31T02:56:12;10.48;;;5.20;;
53269;SDS011;39159;45.634;9.420;2023-07-31T02:58:38;8.45;;;5.28;;
53269;SDS011;39159;45.634;9.420;2023-07-31T03:01:03;6.45;;;4.93;;
53269;SDS011;39159;45.634;9.420;2023-07-31T03:03:29;8.20;;;5.38;;
53269;SDS011;39159;45.634;9.420;2023-07-31T03:05:54;7.55;;;5.32;;
53269;SDS011;39159;45.634;9.420;2023-07-31T03:08:20;6.03;;;4.97;;
53269;SDS011;39159;45.634;9.420;2023-07-31T03:10:46;6.75;;;5.53;;
53269;SDS011;39159;45.634;9.420;2023-07-31T03:13:11;8.32;;;5.40;;
53269;SDS011;39159;45.634;9.420;2023-07-31T03:15:36;6.40;;;5.13;;
53269;SDS011;39159;45.634;9.420;2023-07-31T03:18:02;7.13;;;5.13;;
53269;SDS011;39159;45.634;9.420;2023-07-31T03:20:27;6.07;;;5.07;;
53269;SDS011;39159;45.634;9.420;2023-07-31T03:22:53;8.63;;;5.38;;
53269;SDS011;39159;45.634;9.420;2023-07-31T03:25:18;8.00;;;5.43;;
53269;SDS011;39159;45.634;9.420;2023-07-31T03:27:44;6.07;;;4.82;;
53269;SDS011;39159;45.634;9.420;2023-07-31T03:30:09;6.40;;;5.20;;
53269;SDS011;39159;45.634;9.420;2023-07-31T03:32:35;6.32;;;5.18;;
53269;SDS011;39159;45.634;9.420;2023-07-31T03:35:00;7.35;;;4.97;;
53269;SDS011;39159;45.634;9.420;2023-07-31T03:37:26;7.65;;;5.57;;
53269;SDS011;39159;45.634;9.420;2023-07-31T03:39:51;7.18;;;5.78;;
53269;SDS011;39159;45.634;9.420;2023-07-31T03:42:16;13.90;;;5.82;;
53269;SDS011;39159;45.634;9.420;2023-07-31T03:44:42;10.20;;;5.88;;
53269;SDS011;39159;45.634;9.420;2023-07-31T03:47:08;6.90;;;5.90;;
53269;SDS011;39159;45.634;9.420;2023-07-31T03:49:33;8.02;;;5.97;;
53269;SDS011;39159;45.634;9.420;2023-07-31T03:51:58;7.28;;;5.60;;
53269;SDS011;39159;45.634;9.420;2023-07-31T03:54:24;7.18;;;6.10;;
53269;SDS011;39159;45.634;9.420;2023-07-31T03:56:49;9.63;;;5.72;;
53269;SDS011;39159;45.634;9.420;2023-07-31T03:59:15;11.68;;;6.78;;
53269;SDS011;39159;45.634;9.420;2023-07-31T04:01:40;8.50;;;5.75;;
53269;SDS011;39159;45.634;9.420;2023-07-31T04:04:05;9.48;;;5.03;;
53269;SDS011;39159;45.634;9.420;2023-07-31T04:06:31;9.10;;;5.38;;
53269;SDS011;39159;45.634;9.420;2023-07-31T04:08:56;9.15;;;5.40;;
53269;SDS011;39159;45.634;9.420;2023-07-31T04:11:22;11.50;;;5.85;;
53269;SDS011;39159;45.634;9.420;2023-07-31T04:13:47;9.18;;;5.30;;
53269;SDS011;39159;45.634;9.420;2023-07-31T04:16:13;10.68;;;5.38;;
53269;SDS011;39159;45.634;9.420;2023-07-31T04:18:38;8.98;;;5.35;;
53269;SDS011;39159;45.634;9.420;2023-07-31T04:21:04;6.03;;;5.43;;
53269;SDS011;39159;45.634;9.420;2023-07-31T04:23:29;12.93;;;5.75;;
53269;SDS011;39159;45.634;9.420;2023-07-31T04:25:55;10.63;;;5.53;;
53269;SDS011;39159;45.634;9.420;2023-07-31T04:28:20;8.98;;;5.47;;
53269;SDS011;39159;45.634;9.420;2023-07-31T04:30:46;10.00;;;5.30;;
53269;SDS011;39159;45.634;9.420;2023-07-31T04:33:12;6.72;;;4.93;;
53269;SDS011;39159;45.634;9.420;2023-07-31T04:35:37;7.25;;;5.00;;
53269;SDS011;39159;45.634;9.420;2023-07-31T04:38:03;9.30;;;4.80;;
53269;SDS011;39159;45.634;9.420;2023-07-31T04:40:28;9.25;;;4.88;;
53269;SDS011;39159;45.634;9.420;2023-07-31T04:42:53;7.57;;;4.63;;
53269;SDS011;39159;45.634;9.420;2023-07-31T04:45:19;5.70;;;4.93;;
53269;SDS011;39159;45.634;9.420;2023-07-31T04:47:44;5.75;;;4.43;;
53269;SDS011;39159;45.634;9.420;2023-07-31T04:50:10;5.63;;;4.30;;
53269;SDS011;39159;45.634;9.420;2023-07-31T04:52:35;7.00;;;4.57;;
53269;SDS011;39159;45.634;9.420;2023-07-31T04:55:01;6.65;;;4.30;;
53269;SDS011;39159;45.634;9.420;2023-07-31T04:57:26;4.78;;;4.20;;
53269;SDS011;39159;45.634;9.420;2023-07-31T04:59:52;4.57;;;4.15;;
53269;SDS011;39159;45.634;9.420;2023-07-31T05:02:17;4.90;;;4.15;;
53269;SDS011;39159;45.634;9.420;2023-07-31T05:04:43;7.57;;;4.03;;
53269;SDS011;39159;45.634;9.420;2023-07-31T05:07:08;8.45;;;3.97;;
53269;SDS011;39159;45.634;9.420;2023-07-31T05:09:33;5.00;;;3.50;;
53269;SDS011;39159;45.634;9.420;2023-07-31T05:11:59;6.45;;;4.00;;
53269;SDS011;39159;45.634;9.420;2023-07-31T05:14:25;5.63;;;4.22;;
53269;SDS011;39159;45.634;9.420;2023-07-31T05:16:51;5.72;;;4.00;;
53269;SDS011;39159;45.634;9.420;2023-07-31T05:19:16;5.22;;;3.65;;
53269;SDS011;39159;45.634;9.420;2023-07-31T05:21:42;5.18;;;3.75;;
53269;SDS011;39159;45.634;9.420;2023-07-31T05:24:07;5.47;;;3.55;;
53269;SDS011;39159;45.634;9.420;2023-07-31T05:26:33;6.35;;;3.60;;
53269;SDS011;39159;45.634;9.420;2023-07-31T05:28:58;5.80;;;3.85;;
53269;SDS011;39159;45.634;9.420;2023-07-31T05:31:24;4.50;;;3.78;;
53269;SDS011;39159;45.634;9.420;2023-07-31T05:33:49;6.95;;;4.15;;
53269;SDS011;39159;45.634;9.420;2023-07-31T05:36:15;5.13;;;4.03;;
53269;SDS011;39159;45.634;9.420;2023-07-31T05:38:41;4.95;;;4.28;;
53269;SDS011;39159;45.634;9.420;2023-07-31T05:41:09;5.40;;;3.95;;
53269;SDS011;39159;45.634;9.420;2023-07-31T05:43:34;4.75;;;3.75;;
53269;SDS011;39159;45.634;9.420;2023-07-31T05:46:00;5.13;;;3.88;;
53269;SDS011;39159;45.634;9.420;2023-07-31T05:48:26;4.90;;;3.45;;
53269;SDS011;39159;45.634;9.420;2023-07-31T05:50:51;4.57;;;3.55;;
53269;SDS011;39159;45.634;9.420;2023-07-31T05:53:17;5.18;;;3.63;;
53269;SDS011;39159;45.634;9.420;2023-07-31T05:55:42;6.72;;;3.70;;
53269;SDS011;39159;45.634;9.420;2023-07-31T05:58:08;4.53;;;3.45;;
53269;SDS011;39159;45.634;9.420;2023-07-31T06:00:33;6.03;;;3.25;;
53269;SDS011;39159;45.634;9.420;2023-07-31T06:02:59;5.47;;;3.38;;
53269;SDS011;39159;45.634;9.420;2023-07-31T06:05:24;4.35;;;2.92;;
53269;SDS011;39159;45.634;9.420;2023-07-31T06:07:51;4.68;;;3.05;;
53269;SDS011;39159;45.634;9.420;2023-07-31T06:10:16;6.10;;;3.03;;
53269;SDS011;39159;45.634;9.420;2023-07-31T06:12:42;3.72;;;3.20;;
53269;SDS011;39159;45.634;9.420;2023-07-31T06:15:07;4.30;;;2.78;;
53269;SDS011;39159;45.634;9.420;2023-07-31T06:17:33;4.78;;;3.00;;
53269;SDS011;39159;45.634;9.420;2023-07-31T06:19:58;4.88;;;2.95;;
53269;SDS011;39159;45.634;9.420;2023-07-31T06:22:23;4.82;;;2.80;;
53269;SDS011;39159;45.634;9.420;2023-07-31T06:24:49;4.80;;;3.00;;
53269;SDS011;39159;45.634;9.420;2023-07-31T06:27:14;4.18;;;2.90;;
53269;SDS011;39159;45.634;9.420;2023-07-31T06:29:40;4.70;;;3.40;;
53269;SDS011;39159;45.634;9.420;2023-07-31T06:32:06;4.05;;;3.08;;
53269;SDS011;39159;45.634;9.420;2023-07-31T06:34:32;5.38;;;3.17;;
53269;SDS011;39159;45.634;9.420;2023-07-31T06:36:57;4.53;;;2.83;;
53269;SDS011;39159;45.634;9.420;2023-07-31T06:39:23;4.57;;;3.03;;
53269;SDS011;39159;45.634;9.420;2023-07-31T06:41:48;3.40;;;2.58;;
53269;SDS011;39159;45.634;9.420;2023-07-31T06:44:14;7.38;;;2.95;;
53269;SDS011;39159;45.634;9.420;2023-07-31T06:46:39;4.00;;;3.60;;
53269;SDS011;39159;45.634;9.420;2023-07-31T06:49:04;4.80;;;3.20;;
53269;SDS011;39159;45.634;9.420;2023-07-31T06:51:30;5.10;;;3.00;;
53269;SDS011;39159;45.634;9.420;2023-07-31T06:53:56;3.65;;;2.83;;
53269;SDS011;39159;45.634;9.420;2023-07-31T06:56:22;4.03;;;3.03;;
53269;SDS011;39159;45.634;9.420;2023-07-31T06:58:48;3.55;;;2.60;;
53269;SDS011;39159;45.634;9.420;2023-07-31T07:01:14;5.32;;;2.90;;
53269;SDS011;39159;45.634;9.420;2023-07-31T07:03:39;5.70;;;3.17;;
53269;SDS011;39159;45.634;9.420;2023-07-31T07:06:04;3.42;;;2.92;;
53269;SDS011;39159;45.634;9.420;2023-07-31T07:08:30;4.07;;;3.05;;
53269;SDS011;39159;45.634;9.420;2023-07-31T07:10:56;3.58;;;3.15;;
53269;SDS011;39159;45.634;9.420;2023-07-31T07:13:21;2.85;;;2.30;;
53269;SDS011;39159;45.634;9.420;2023-07-31T07:15:47;3.53;;;3.00;;
53269;SDS011;39159;45.634;9.420;2023-07-31T07:18:14;3.20;;;2.78;;
53269;SDS011;39159;45.634;9.420;2023-07-31T07:20:39;5.10;;;3.13;;
53269;SDS011;39159;45.634;9.420;2023-07-31T07:23:05;3.05;;;2.58;;
53269;SDS011;39159;45.634;9.420;2023-07-31T07:25:30;3.90;;;2.90;;
53269;SDS011;39159;45.634;9.420;2023-07-31T07:27:56;8.90;;;2.63;;
53269;SDS011;39159;45.634;9.420;2023-07-31T07:30:21;4.38;;;2.92;;
53269;SDS011;39159;45.634;9.420;2023-07-31T07:32:48;5.28;;;3.20;;
53269;SDS011;39159;45.634;9.420;2023-07-31T07:35:14;3.80;;;2.78;;
53269;SDS011;39159;45.634;9.420;2023-07-31T07:37:39;5.22;;;3.03;;
53269;SDS011;39159;45.634;9.420;2023-07-31T07:40:05;4.22;;;3.00;;
53269;SDS011;39159;45.634;9.420;2023-07-31T07:42:31;6.53;;;3.00;;
53269;SDS011;39159;45.634;9.420;2023-07-31T07:44:56;3.92;;;2.63;;
53269;SDS011;39159;45.634;9.420;2023-07-31T07:47:22;3.75;;;3.00;;
53269;SDS011;39159;45.634;9.420;2023-07-31T07:49:47;5.55;;;2.83;;
53269;SDS011;39159;45.634;9.420;2023-07-31T07:52:12;5.80;;;2.53;;
53269;SDS011;39159;45.634;9.420;2023-07-31T07:54:38;4.97;;;2.80;;
53269;SDS011;39159;45.634;9.420;2023-07-31T07:57:03;3.17;;;2.70;;
53269;SDS011;39159;45.634;9.420;2023-07-31T07:59:29;4.22;;;2.70;;
53269;SDS011;39159;45.634;9.420;2023-07-31T08:01:54;5.50;;;2.42;;
53269;SDS011;39159;45.634;9.420;2023-07-31T08:04:20;4.20;;;2.50;;
53269;SDS011;39159;45.634;9.420;2023-07-31T08:06:45;4.00;;;2.50;;
53269;SDS011;39159;45.634;9.420;2023-07-31T08:09:11;2.85;;;2.55;;
53269;SDS011;39159;45.634;9.420;2023-07-31T08:11:36;4.93;;;2.53;;
53269;SDS011;39159;45.634;9.420;2023-07-31T08:14:02;3.85;;;2.40;;
53269;SDS011;39159;45.634;9.420;2023-07-31T08:16:27;16.48;;;2.63;;
53269;SDS011;39159;45.634;9.420;2023-07-31T08:18:53;2.80;;;2.20;;
53269;SDS011;39159;45.634;9.420;2023-07-31T08:21:18;4.78;;;2.70;;
53269;SDS011;39159;45.634;9.420;2023-07-31T08:23:44;2.63;;;2.28;;
53269;SDS011;39159;45.634;9.420;2023-07-31T08:26:18;2.60;;;2.20;;
53269;SDS011;39159;45.634;9.420;2023-07-31T08:28:45;4.30;;;2.00;;
53269;SDS011;39159;45.634;9.420;2023-07-31T08:31:11;3.72;;;2.10;;
53269;SDS011;39159;45.634;9.420;2023-07-31T08:33:37;6.70;;;2.28;;
53269;SDS011;39159;45.634;9.420;2023-07-31T08:36:03;3.25;;;2.20;;
53269;SDS011;39159;45.634;9.420;2023-07-31T08:38:28;3.88;;;2.20;;
53269;SDS011;39159;45.634;9.420;2023-07-31T08:40:56;3.88;;;2.05;;
53269;SDS011;39159;45.634;9.420;2023-07-31T08:43:22;4.10;;;2.20;;
53269;SDS011;39159;45.634;9.420;2023-07-31T08:45:51;3.63;;;2.63;;
53269;SDS011;39159;45.634;9.420;2023-07-31T08:48:17;3.90;;;2.30;;
53269;SDS011;39159;45.634;9.420;2023-07-31T08:50:43;3.63;;;2.33;;
53269;SDS011;39159;45.634;9.420;2023-07-31T08:53:09;3.67;;;2.70;;
53269;SDS011;39159;45.634;9.420;2023-07-31T08:55:35;4.15;;;2.30;;
53269;SDS011;39159;45.634;9.420;2023-07-31T08:58:01;3.10;;;2.33;;
53269;SDS011;39159;45.634;9.420;2023-07-31T09:00:28;3.45;;;2.47;;
53269;SDS011;39159;45.634;9.420;2023-07-31T09:03:01;4.53;;;2.45;;
53269;SDS011;39159;45.634;9.420;2023-07-31T09:05:31;6.50;;;2.72;;
53269;SDS011;39159;45.634;9.420;2023-07-31T09:07:57;4.47;;;2.17;;
53269;SDS011;39159;45.634;9.420;2023-07-31T09:10:23;3.90;;;2.17;;
53269;SDS011;39159;45.634;9.420;2023-07-31T09:12:49;3.47;;;2.60;;
53269;SDS011;39159;45.634;9.420;2023-07-31T09:15:17;5.15;;;2.38;;
53269;SDS011;39159;45.634;9.420;2023-07-31T09:17:43;2.83;;;2.38;;
53269;SDS011;39159;45.634;9.420;2023-07-31T09:20:15;3.75;;;2.47;;
53269;SDS011;39159;45.634;9.420;2023-07-31T09:22:42;6.30;;;2.83;;
53269;SDS011;39159;45.634;9.420;2023-07-31T09:27:45;4.90;;;3.55;;
53269;SDS011;39159;45.634;9.420;2023-07-31T09:30:19;2.95;;;2.50;;
53269;SDS011;39159;45.634;9.420;2023-07-31T09:32:46;3.22;;;2.40;;
53269;SDS011;39159;45.634;9.420;2023-07-31T09:37:47;4.30;;;2.95;;
53269;SDS011;39159;45.634;9.420;2023-07-31T09:40:32;3.58;;;2.55;;
53269;SDS011;39159;45.634;9.420;2023-07-31T09:43:09;4.25;;;2.50;;
53269;SDS011;39159;45.634;9.420;2023-07-31T09:45:36;3.25;;;2.65;;
53269;SDS011;39159;45.634;9.420;2023-07-31T09:48:06;8.40;;;2.97;;
53269;SDS011;39159;45.634;9.420;2023-07-31T09:50:34;4.55;;;2.30;;
53269;SDS011;39159;45.634;9.420;2023-07-31T09:53:03;3.22;;;2.40;;
53269;SDS011;39159;45.634;9.420;2023-07-31T09:55:29;3.08;;;2.10;;
53269;SDS011;39159;45.634;9.420;2023-07-31T09:57:56;4.68;;;2.65;;
53269;SDS011;39159;45.634;9.420;2023-07-31T10:00:22;2.80;;;2.38;;
53269;SDS011;39159;45.634;9.420;2023-07-31T10:02:52;3.97;;;2.38;;
53269;SDS011;39159;45.634;9.420;2023-07-31T10:05:19;3.35;;;2.58;;
53269;SDS011;39159;45.634;9.420;2023-07-31T10:07:51;3.20;;;2.60;;
53269;SDS011;39159;45.634;9.420;2023-07-31T10:10:20;3.20;;;2.90;;
53269;SDS011;39159;45.634;9.420;2023-07-31T10:12:50;2.78;;;2.15;;
53269;SDS011;39159;45.634;9.420;2023-07-31T10:15:16;4.82;;;2.60;;
53269;SDS011;39159;45.634;9.420;2023-07-31T10:17:42;2.95;;;2.45;;
53269;SDS011;39159;45.634;9.420;2023-07-31T10:20:09;5.60;;;3.90;;
53269;SDS011;39159;45.634;9.420;2023-07-31T10:22:35;4.65;;;2.53;;
53269;SDS011;39159;45.634;9.420;2023-07-31T10:25:01;1.88;;;1.77;;
53269;SDS011;39159;45.634;9.420;2023-07-31T10:27:27;5.82;;;2.28;;
53269;SDS011;39159;45.634;9.420;2023-07-31T10:29:54;3.63;;;2.90;;
53269;SDS011;39159;45.634;9.420;2023-07-31T10:32:21;3.63;;;3.10;;
53269;SDS011;39159;45.634;9.420;2023-07-31T10:34:49;4.55;;;3.13;;
53269;SDS011;39159;45.634;9.420;2023-07-31T10:37:25;3.83;;;2.70;;
53269;SDS011;39159;45.634;9.420;2023-07-31T10:40:05;4.35;;;2.45;;
53269;SDS011;39159;45.634;9.420;2023-07-31T10:42:50;4.60;;;2.30;;
53269;SDS011;39159;45.634;9.420;2023-07-31T10:45:32;2.90;;;2.25;;
53269;SDS011;39159;45.634;9.420;2023-07-31T10:48:02;3.47;;;2.45;;
53269;SDS011;39159;45.634;9.420;2023-07-31T10:50:30;3.22;;;2.60;;
53269;SDS011;39159;45.634;9.420;2023-07-31T10:52:59;4.18;;;2.55;;
53269;SDS011;39159;45.634;9.420;2023-07-31T10:58:04;4.60;;;3.20;;
53269;SDS011;39159;45.634;9.420;2023-07-31T11:00:32;5.07;;;3.25;;
53269;SDS011;39159;45.634;9.420;2023-07-31T11:03:00;3.92;;;2.83;;
53269;SDS011;39159;45.634;9.420;2023-07-31T11:05:50;4.07;;;3.50;;
53269;SDS011;39159;45.634;9.420;2023-07-31T11:08:25;4.40;;;3.00;;
53269;SDS011;39159;45.634;9.420;2023-07-31T11:13:27;3.50;;;2.80;;
53269;SDS011;39159;45.634;9.420;2023-07-31T11:15:53;4.43;;;2.60;;
53269;SDS011;39159;45.634;9.420;2023-07-31T11:18:19;3.90;;;3.20;;
53269;SDS011;39159;45.634;9.420;2023-07-31T11:20:44;2.88;;;2.60;;
53269;SDS011;39159;45.634;9.420;2023-07-31T11:23:10;3.20;;;2.90;;
53269;SDS011;39159;45.634;9.420;2023-07-31T11:25:39;3.30;;;3.00;;
53269;SDS011;39159;45.634;9.420;2023-07-31T11:28:11;3.13;;;2.50;;
53269;SDS011;39159;45.634;9.420;2023-07-31T11:30:37;3.88;;;2.72;;
53269;SDS011;39159;45.634;9.420;2023-07-31T11:33:05;4.95;;;3.22;;
53269;SDS011;39159;45.634;9.420;2023-07-31T11:35:35;3.05;;;2.63;;
53269;SDS011;39159;45.634;9.420;2023-07-31T11:38:06;4.05;;;3.25;;
53269;SDS011;39159;45.634;9.420;2023-07-31T11:40:40;5.25;;;2.88;;
53269;SDS011;39159;45.634;9.420;2023-07-31T11:43:09;5.38;;;3.92;;
53269;SDS011;39159;45.634;9.420;2023-07-31T11:45:36;5.93;;;3.88;;
53269;SDS011;39159;45.634;9.420;2023-07-31T11:48:02;5.85;;;3.30;;
53269;SDS011;39159;45.634;9.420;2023-07-31T11:50:28;4.95;;;3.58;;
53269;SDS011;39159;45.634;9.420;2023-07-31T11:52:56;4.18;;;3.35;;
53269;SDS011;39159;45.634;9.420;2023-07-31T11:55:24;4.78;;;3.22;;
53269;SDS011;39159;45.634;9.420;2023-07-31T11:57:51;2.92;;;2.60;;
53269;SDS011;39159;45.634;9.420;2023-07-31T12:00:18;4.07;;;3.28;;
53269;SDS011;39159;45.634;9.420;2023-07-31T12:02:44;3.90;;;3.30;;
53269;SDS011;39159;45.634;9.420;2023-07-31T12:05:13;4.53;;;3.63;;
53269;SDS011;39159;45.634;9.420;2023-07-31T12:10:24;4.22;;;3.33;;
53269;SDS011;39159;45.634;9.420;2023-07-31T12:13:04;3.17;;;2.88;;
53269;SDS011;39159;45.634;9.420;2023-07-31T12:18:01;5.82;;;3.58;;
53269;SDS011;39159;45.634;9.420;2023-07-31T12:20:29;3.50;;;3.03;;
53269;SDS011;39159;45.634;9.420;2023-07-31T12:22:55;3.72;;;2.70;;
53269;SDS011;39159;45.634;9.420;2023-07-31T12:25:22;4.10;;;2.90;;
53269;SDS011;39159;45.634;9.420;2023-07-31T12:27:47;4.57;;;3.60;;
53269;SDS011;39159;45.634;9.420;2023-07-31T12:33:13;5.07;;;3.65;;
53269;SDS011;39159;45.634;9.420;2023-07-31T12:35:46;4.03;;;3.35;;
53269;SDS011;39159;45.634;9.420;2023-07-31T12:38:12;5.25;;;3.42;;
53269;SDS011;39159;45.634;9.420;2023-07-31T12:40:39;4.93;;;3.10;;
53269;SDS011;39159;45.634;9.420;2023-07-31T12:43:05;4.20;;;3.63;;
53269;SDS011;39159;45.634;9.420;2023-07-31T12:45:31;9.07;;;4.00;;
53269;SDS011;39159;45.634;9.420;2023-07-31T12:48:00;4.85;;;3.20;;
53269;SDS011;39159;45.634;9.420;2023-07-31T12:50:26;3.63;;;2.53;;
53269;SDS011;39159;45.634;9.420;2023-07-31T12:52:55;3.00;;;2.67;;
53269;SDS011;39159;45.634;9.420;2023-07-31T12:55:22;3.97;;;2.75;;
53269;SDS011;39159;45.634;9.420;2023-07-31T12:57:48;4.72;;;2.78;;
53269;SDS011;39159;45.634;9.420;2023-07-31T13:00:14;3.92;;;3.30;;
53269;SDS011;39159;45.634;9.420;2023-07-31T13:02:40;3.38;;;3.08;;
53269;SDS011;39159;45.634;9.420;2023-07-31T13:05:06;3.10;;;2.80;;
53269;SDS011;39159;45.634;9.420;2023-07-31T13:07:31;4.25;;;2.85;;
53269;SDS011;39159;45.634;9.420;2023-07-31T13:09:57;5.72;;;3.40;;
53269;SDS011;39159;45.634;9.420;2023-07-31T13:12:22;7.00;;;3.60;;
53269;SDS011;39159;45.634;9.420;2023-07-31T13:14:47;3.45;;;3.10;;
53269;SDS011;39159;45.634;9.420;2023-07-31T13:17:13;4.38;;;2.83;;
53269;SDS011;39159;45.634;9.420;2023-07-31T13:19:38;4.43;;;3.30;;
53269;SDS011;39159;45.634;9.420;2023-07-31T13:22:04;5.43;;;3.10;;
53269;SDS011;39159;45.634;9.420;2023-07-31T13:24:29;4.85;;;3.30;;
53269;SDS011;39159;45.634;9.420;2023-07-31T13:26:55;4.15;;;3.15;;
53269;SDS011;39159;45.634;9.420;2023-07-31T13:29:21;3.17;;;2.83;;
53269;SDS011;39159;45.634;9.420;2023-07-31T13:31:47;3.42;;;3.13;;
53269;SDS011;39159;45.634;9.420;2023-07-31T13:34:12;4.22;;;3.05;;
53269;SDS011;39159;45.634;9.420;2023-07-31T13:36:38;4.15;;;3.20;;
53269;SDS011;39159;45.634;9.420;2023-07-31T13:39:03;3.20;;;2.90;;
53269;SDS011;39159;45.634;9.420;2023-07-31T13:41:29;4.68;;;3.33;;
53269;SDS011;39159;45.634;9.420;2023-07-31T13:43:54;4.88;;;3.92;;
53269;SDS011;39159;45.634;9.420;2023-07-31T13:46:19;5.25;;;3.45;;
53269;SDS011;39159;45.634;9.420;2023-07-31T13:48:45;3.60;;;3.30;;
53269;SDS011;39159;45.634;9.420;2023-07-31T13:51:10;6.22;;;3.33;;
53269;SDS011;39159;45.634;9.420;2023-07-31T13:53:36;3.40;;;3.10;;
53269;SDS011;39159;45.634;9.420;2023-07-31T13:56:01;6.60;;;3.42;;
53269;SDS011;39159;45.634;9.420;2023-07-31T13:58:27;4.97;;;3.38;;
53269;SDS011;39159;45.634;9.420;2023-07-31T14:00:52;3.75;;;3.05;;
53269;SDS011;39159;45.634;9.420;2023-07-31T14:03:18;3.20;;;2.90;;
53269;SDS011;39159;45.634;9.420;2023-07-31T14:05:43;3.45;;;3.03;;
53269;SDS011;39159;45.634;9.420;2023-07-31T14:08:09;4.18;;;3.03;;
53269;SDS011;39159;45.634;9.420;2023-07-31T14:10:34;7.55;;;3.38;;
53269;SDS011;39159;45.634;9.420;2023-07-31T14:12:59;3.55;;;3.15;;
53269;SDS011;39159;45.634;9.420;2023-07-31T14:15:25;3.67;;;3.20;;
53269;SDS011;39159;45.634;9.420;2023-07-31T14:17:50;3.80;;;3.08;;
53269;SDS011;39159;45.634;9.420;2023-07-31T14:20:16;3.88;;;3.25;;
53269;SDS011;39159;45.634;9.420;2023-07-31T14:22:42;4.03;;;3.15;;
53269;SDS011;39159;45.634;9.420;2023-07-31T14:25:08;3.30;;;3.00;;
53269;SDS011;39159;45.634;9.420;2023-07-31T14:27:35;4.78;;;3.15;;
53269;SDS011;39159;45.634;9.420;2023-07-31T14:30:01;3.28;;;2.72;;
53269;SDS011;39159;45.634;9.420;2023-07-31T14:32:26;5.43;;;3.38;;
53269;SDS011;39159;45.634;9.420;2023-07-31T14:34:52;4.95;;;3.63;;
53269;SDS011;39159;45.634;9.420;2023-07-31T14:37:17;3.20;;;2.90;;
53269;SDS011;39159;45.634;9.420;2023-07-31T14:39:43;4.30;;;3.30;;
53269;SDS011;39159;45.634;9.420;2023-07-31T14:42:08;4.90;;;3.38;;
53269;SDS011;39159;45.634;9.420;2023-07-31T14:44:34;9.57;;;6.75;;
53269;SDS011;39159;45.634;9.420;2023-07-31T14:46:59;7.45;;;3.63;;
53269;SDS011;39159;45.634;9.420;2023-07-31T14:49:24;4.28;;;3.60;;
53269;SDS011;39159;45.634;9.420;2023-07-31T14:51:52;4.13;;;3.72;;
53269;SDS011;39159;45.634;9.420;2023-07-31T14:54:17;4.35;;;3.90;;
53269;SDS011;39159;45.634;9.420;2023-07-31T14:56:43;4.07;;;3.67;;
53269;SDS011;39159;45.634;9.420;2023-07-31T14:59:08;5.22;;;3.97;;
53269;SDS011;39159;45.634;9.420;2023-07-31T15:01:35;5.43;;;3.95;;
53269;SDS011;39159;45.634;9.420;2023-07-31T15:04:00;3.65;;;2.90;;
53269;SDS011;39159;45.634;9.420;2023-07-31T15:06:25;5.18;;;3.20;;
53269;SDS011;39159;45.634;9.420;2023-07-31T15:08:51;4.93;;;3.53;;
53269;SDS011;39159;45.634;9.420;2023-07-31T15:11:16;6.85;;;3.85;;
53269;SDS011;39159;45.634;9.420;2023-07-31T15:13:43;5.15;;;3.60;;